• Join FlightAware (Why Join?)
  • Login
  • US Flag 
03:31AM EDT


 

Airport Tracker/Info


-or-


 

Live Flight TrackerFlight Track Log ✈ TAM3441 ✈ 23-Sep-2013 ✈ SBCF / CNF - SBGR / GRU

Flight Track Log - Related Links

Times and Time Zones

All times are in EDT time to prevent confusion due to time zone crossing. See the TAM3441 flight status page for this flight to view local times or setup timezone preferences in your user account.

Time Position Orientation Groundspeed Altitude Reporting Facility
EDT Latitude Longitude Course Direction KTS MPH feet Rate Location/Type
05:49AM -21.0427 -44.8785 211° Southwest  Level Estimated
05:50AM -21.0948 -44.9125 211° Southwest  Level Estimated
05:51AM -21.1469 -44.9466 211° Southwest  Level Estimated
05:52AM -21.1989 -44.9806 211° Southwest  Level Estimated
05:53AM -21.2510 -45.0147 211° Southwest  Level Estimated
05:54AM -21.3031 -45.0488 211° Southwest  Level Estimated
05:55AM -21.3551 -45.0830 211° Southwest  Level Estimated
05:56AM -21.4072 -45.1171 211° Southwest  Level Estimated
05:57AM -21.4592 -45.1513 211° Southwest  Level Estimated
05:58AM -21.5113 -45.1855 211° Southwest  Level Estimated
05:59AM -21.5633 -45.2197 211° Southwest  Level Estimated
06:00AM -21.6153 -45.2540 211° Southwest  Level Estimated
06:01AM -21.6673 -45.2883 211° Southwest  Level Estimated
06:02AM -21.7193 -45.3226 211° Southwest  Level Estimated
06:03AM -21.7713 -45.3569 212° Southwest  Level Estimated
06:04AM -21.8233 -45.3913 212° Southwest  Level Estimated
06:05AM -21.8753 -45.4257 212° Southwest  Level Estimated
06:06AM -21.9273 -45.4601 212° Southwest  Level Estimated
06:07AM -21.9793 -45.4945 212° Southwest  Level Estimated
06:08AM -22.0312 -45.5289 212° Southwest  Level Estimated
06:09AM -22.1056 -45.5783 212° Southwest  Level Estimated
06:10AM -22.1800 -45.6277 212° Southwest  Level Estimated
06:11AM -22.2543 -45.6772 212° Southwest  Level Estimated
06:12AM -22.3286 -45.7267 212° Southwest  Level Estimated
06:13AM -22.4029 -45.7763 212° Southwest  Level Estimated
06:14AM -22.4772 -45.8259 212° Southwest  Level Estimated
06:15AM -22.5515 -45.8756 212° Southwest  Level Estimated
06:16AM -22.6257 -45.9253 212° Southwest  Level Estimated
06:17AM -22.7000 -45.9751 212° Southwest  Level Estimated
06:18AM -22.7742 -46.0250 212° Southwest  Level Estimated
06:19AM -22.8484 -46.0749 212° Southwest  Level Estimated
06:20AM -22.9226 -46.1248 212° Southwest  Level Estimated
06:21AM -22.9968 -46.1748 212° Southwest  Level Estimated
06:22AM -23.0710 -46.2249 212° Southwest  Level Estimated
06:23AM -23.1452 -46.2750 212° Southwest  Level Estimated
06:24AM -23.2193 -46.3251 212° Southwest  Level Estimated
06:25AM -23.2934 -46.3754 212° Southwest  Level Estimated
06:26AM -23.3675 -46.4257 212° Southwest  Level Estimated
06:27AM -23.4321 -46.4695 212° Southwest  Level Estimated
06:28AM -23.4321 -46.4695 350° North  Level Estimated
06:29AM -23.4321 -46.4695 350° North  Level Estimated